Time;durP1;ratioP1;P1;durP2;ratioP2;P2;SDS_P1;SDS_P2;PMS_P1;PMS_P2;Temp;Humidity;BMP_temperature;BMP_pressure;BME280_temperature;BME280_humidity;BME280_pressure;Samples;Min_cycle;Max_cycle;Signal;HPM_P1;HPM_P2
2022/11/23 00:01:25;;;;;;;3.43;3.13;;;;;;;19.47;51.74;95913.75;5009060;28;20178;-94
2022/11/23 00:03:55;;;;;;;3.33;2.80;;;;;;;19.56;51.43;95948.66;4993561;28;20182;-93
2022/11/23 00:06:22;;;;;;;3.20;2.90;;;;;;;19.49;51.44;95934.16;5006158;28;20265;-96
2022/11/23 00:08:48;;;;;;;3.67;3.23;;;;;;;19.67;51.28;95954.75;5023018;28;20182;-96
2022/11/23 00:11:15;;;;;;;3.50;3.20;;;;;;;21.10;51.26;96198.78;5012036;28;20182;-95
2022/11/23 00:13:42;;;;;;;3.30;2.93;;;;;;;19.58;51.23;95952.97;5005908;28;20190;-96
2022/11/23 00:16:17;;;;;;;3.57;3.00;;;;;;;21.17;51.44;96198.03;5004878;28;20285;-96
2022/11/23 00:18:44;;;;;;;3.50;3.20;;;;;;;19.59;51.31;95944.47;5008915;28;20206;-96
2022/11/23 00:21:15;;;;;;;4.00;3.20;;;;;;;19.57;51.44;95948.69;5012718;28;20179;-95
2022/11/23 00:23:42;;;;;;;4.10;3.23;;;;;;;19.65;51.32;95953.88;5021592;28;20206;-94
2022/11/23 00:26:09;;;;;;;3.77;3.23;;;;;;;19.66;51.42;95947.97;5025392;28;20221;-95
2022/11/23 00:28:39;;;;;;;3.40;3.10;;;;;;;18.85;51.89;95807.72;5009017;28;20226;-95
2022/11/23 00:31:06;;;;;;;3.27;2.97;;;;;;;19.20;51.70;95872.66;4999970;28;20202;-91
2022/11/23 00:33:33;;;;;;;3.33;3.03;;;;;;;19.65;51.46;95971.72;4993635;28;20210;-95
2022/11/23 00:36:04;;;;;;;3.20;2.87;;;;;;;21.16;51.39;96215.03;4987960;28;20218;-95
2022/11/23 00:38:31;;;;;;;3.70;3.30;;;;;;;19.24;51.45;95911.72;5008161;28;20202;-96
2022/11/23 00:41:05;;;;;;;3.40;3.10;;;;;;;19.40;51.44;95911.13;5000650;28;20237;-96
2022/11/23 00:43:32;;;;;;;3.40;3.10;;;;;;;18.64;51.25;95786.22;5002786;28;20178;-96
2022/11/23 00:48:34;;;;;;;3.83;3.03;;;;;;;19.66;51.71;95969.19;5044359;23;20221;-91
2022/11/23 00:51:05;;;;;;;3.80;3.30;;;;;;;19.65;51.59;95946.22;5116844;23;20355;-96
2022/11/23 00:53:32;;;;;;;3.53;2.80;;;;;;;20.56;51.61;96119.03;5014431;28;20205;-96
2022/11/23 00:55:59;;;;;;;3.20;2.90;;;;;;;19.67;51.59;95963.28;5019889;28;20212;-93
2022/11/23 01:39:11;;;;;;;3.20;2.90;;;;;;;19.63;51.54;95969.16;5005036;28;20201;-96
2022/11/23 01:41:39;;;;;;;3.27;2.97;;;;;;;19.61;51.65;95952.13;4986464;28;20184;-94
2022/11/23 01:44:26;;;;;;;3.40;3.10;;;;;;;18.74;51.58;95832.16;4945556;28;20211;-95
2022/11/23 01:46:53;;;;;;;3.20;2.90;;;;;;;19.06;51.95;95883.47;4993734;28;20199;-96
2022/11/23 01:49:20;;;;;;;3.40;3.00;;;;;;;19.46;51.42;95931.56;4986498;23;20529;-89
2022/11/23 01:51:48;;;;;;;3.30;3.00;;;;;;;18.31;51.51;95762.84;4988473;28;20233;-95
2022/11/23 01:54:40;;;;;;;4.10;3.00;;;;;;;18.19;51.46;95748.28;5006589;28;20276;-94
2022/11/23 01:57:10;;;;;;;3.13;2.80;;;;;;;21.08;51.38;96219.19;5003347;28;20241;-95
2022/11/23 01:59:37;;;;;;;3.47;3.17;;;;;;;19.59;51.20;95976.75;4968071;28;20175;-91
2022/11/23 02:02:04;;;;;;;3.70;2.90;;;;;;;18.98;51.43;95874.91;4985744;28;20191;-95
2022/11/23 02:04:36;;;;;;;4.10;3.20;;;;;;;18.39;51.21;95787.59;4986660;28;20183;-95
2022/11/23 02:07:03;;;;;;;2.93;2.70;;;;;;;19.50;51.45;95987.69;4988043;28;20210;-95
2022/11/23 02:09:31;;;;;;;3.30;3.00;;;;;;;19.45;51.35;95951.09;4989505;28;20203;-96
2022/11/23 02:12:00;;;;;;;3.07;2.77;;;;;;;19.00;51.39;95880.84;5175826;23;20206;-95
2022/11/23 02:14:27;;;;;;;3.20;2.90;;;;;;;18.88;51.46;95861.19;4990992;28;20206;-94
2022/11/23 02:16:57;;;;;;;3.60;2.77;;;;;;;19.66;51.52;96004.03;4972359;28;20212;-95
2022/11/23 02:19:46;;;;;;;3.10;2.80;;;;;;;20.72;51.70;96172.81;4982155;28;20195;-95
2022/11/23 02:22:17;;;;;;;3.33;3.03;;;;;;;18.97;51.51;95880.81;4998092;28;20215;-95
2022/11/23 02:24:47;;;;;;;3.30;3.00;;;;;;;18.86;51.46;95883.22;4986212;28;20210;-92
2022/11/23 02:27:14;;;;;;;4.00;3.10;;;;;;;20.04;51.62;96055.47;4977602;28;20234;-94
2022/11/23 02:29:41;;;;;;;3.47;3.17;;;;;;;20.18;51.09;96082.88;4978735;28;20184;-95
2022/11/23 02:32:08;;;;;;;3.00;2.70;;;;;;;19.08;51.31;95886.91;4986459;28;20206;-92
2022/11/23 02:34:34;;;;;;;2.87;2.60;;;;;;;19.95;51.23;96054.50;4980783;28;20205;-95
2022/11/23 02:37:01;;;;;;;2.73;2.53;;;;;;;19.61;51.40;95990.38;4970444;28;20215;-94
2022/11/23 02:39:40;;;;;;;3.53;3.00;;;;;;;21.15;51.37;96249.09;5001101;28;20194;-93
2022/11/23 02:42:06;;;;;;;3.73;2.50;;;;;;;19.42;51.24;95979.06;5071971;23;20220;-94
2022/11/23 02:44:48;;;;;;;3.37;3.07;;;;;;;21.16;51.37;96243.13;4947976;28;20191;-95
2022/11/23 02:47:14;;;;;;;3.10;2.70;;;;;;;19.23;51.17;95950.75;4983746;28;20223;-93
2022/11/23 02:49:48;;;;;;;3.23;2.80;;;;;;;19.65;51.61;95999.75;4969096;28;20187;-96
2022/11/23 02:52:15;;;;;;;2.67;2.47;;;;;;;20.15;51.54;96082.84;4971829;28;20179;-96
2022/11/23 02:54:42;;;;;;;2.90;2.70;;;;;;;19.58;51.49;96006.47;4976707;28;20187;-95
2022/11/23 02:57:09;;;;;;;3.07;2.83;;;;;;;20.68;51.56;96172.75;4961995;28;20233;-95
2022/11/23 02:59:35;;;;;;;3.07;2.87;;;;;;;19.66;51.15;96019.31;4970698;28;20742;-96
2022/11/23 03:02:03;;;;;;;3.10;2.80;;;;;;;19.62;51.50;96008.22;4974691;28;20210;-94
2022/11/23 03:04:30;;;;;;;3.20;2.90;;;;;;;21.07;51.29;96237.94;5148257;23;20226;-95
2022/11/23 03:06:59;;;;;;;2.90;2.50;;;;;;;19.63;51.38;96022.66;5064690;23;20278;-96
2022/11/23 03:09:25;;;;;;;3.43;2.73;;;;;;;18.53;51.34;95826.78;5028153;28;20185;-94
2022/11/23 03:11:52;;;;;;;3.77;3.20;;;;;;;20.31;51.95;96124.69;5019467;28;20174;-95
2022/11/23 03:14:19;;;;;;;3.03;2.77;;;;;;;19.56;51.62;95995.41;4999566;28;20228;-95
2022/11/23 03:16:46;;;;;;;2.80;2.60;;;;;;;19.63;51.53;96017.56;5020167;28;20230;-94
2022/11/23 03:19:13;;;;;;;3.17;2.67;;;;;;;21.06;51.46;96251.56;5019990;28;20209;-93
2022/11/23 03:21:39;;;;;;;3.00;2.70;;;;;;;19.49;51.69;95985.13;5027417;28;20274;-95
2022/11/23 03:24:06;;;;;;;3.10;2.83;;;;;;;18.72;51.08;95844.03;5038298;28;20204;-94
2022/11/23 03:26:33;;;;;;;3.47;3.17;;;;;;;19.61;51.45;96000.56;5035673;28;20198;-92
2022/11/23 03:28:59;;;;;;;3.00;2.70;;;;;;;19.48;51.35;95968.13;5047540;28;20182;-95
2022/11/23 03:31:26;;;;;;;3.60;3.03;;;;;;;19.56;51.50;95979.25;5013906;28;20211;-92
2022/11/23 03:34:08;;;;;;;3.27;2.97;;;;;;;19.76;51.23;96023.69;5013006;28;20204;-94
2022/11/23 03:36:37;;;;;;;3.23;2.73;;;;;;;19.53;51.35;95979.22;5000663;28;20282;-96
2022/11/23 03:39:04;;;;;;;2.77;2.50;;;;;;;19.60;51.57;95992.03;5034520;28;20204;-94
2022/11/23 03:41:31;;;;;;;3.47;2.90;;;;;;;19.82;51.37;96024.63;5039885;28;20198;-94
2022/11/23 03:49:07;;;;;;;3.20;2.90;;;;;;;19.61;51.44;96005.66;5037754;28;20190;-94
2022/11/23 03:51:34;;;;;;;3.40;3.10;;;;;;;20.51;51.37;96144.50;4991693;28;20205;-96
2022/11/23 03:54:00;;;;;;;3.30;3.00;;;;;;;20.76;51.61;96201.78;4991985;28;20193;-96
2022/11/23 03:56:27;;;;;;;3.20;2.90;;;;;;;18.97;51.30;95884.22;5020003;23;20209;-95
2022/11/23 03:58:54;;;;;;;2.90;2.70;;;;;;;19.58;51.83;95998.84;5020614;28;20190;-95
2022/11/23 04:44:40;;;;;;;3.00;2.70;;;;;;;18.65;51.39;95821.84;5037951;28;20213;-94
2022/11/23 05:51:33;;;;;;;2.80;2.60;;;;;;;19.46;51.34;95949.41;1426091;26;20194;-94
2022/11/23 05:54:00;;;;;;;2.70;2.50;;;;;;;18.75;51.73;95823.72;5183590;23;21350;-92
2022/11/23 05:56:27;;;;;;;3.50;2.93;;;;;;;19.21;51.54;95948.19;4968785;28;20216;-96
2022/11/23 05:58:55;;;;;;;2.80;2.60;;;;;;;20.35;51.65;96095.81;4961535;28;20253;-96
2022/11/23 06:01:21;;;;;;;2.70;2.50;;;;;;;20.92;51.51;96183.22;4961736;28;20235;-96
2022/11/23 06:03:49;;;;;;;2.93;2.67;;;;;;;20.18;51.30;96062.47;4957923;28;20176;-96
2022/11/23 06:06:16;;;;;;;2.90;2.57;;;;;;;19.43;51.37;95934.94;4966533;28;20203;-95
2022/11/23 06:08:42;;;;;;;2.77;2.50;;;;;;;20.75;51.06;96175.41;4972638;28;20211;-95
2022/11/23 06:11:14;;;;;;;5.43;2.90;;;;;;;20.71;51.38;96152.38;4974314;28;20272;-95
2022/11/23 06:13:41;;;;;;;8.67;3.33;;;;;;;20.43;51.12;96127.38;4981991;28;20175;-96
2022/11/23 06:16:07;;;;;;;6.93;4.57;;;;;;;19.61;49.21;95983.59;4965827;28;20219;-94
2022/11/23 06:18:35;;;;;;;5.80;4.70;;;;;;;19.81;47.55;96025.44;4965941;28;20179;-95
2022/11/23 06:21:02;;;;;;;5.97;4.47;;;;;;;20.17;46.82;96085.41;4992720;28;20223;-96
2022/11/23 06:23:29;;;;;;;5.80;4.73;;;;;;;20.26;45.61;96091.47;4967317;28;20251;-96
2022/11/23 06:25:59;;;;;;;4.93;4.40;;;;;;;20.49;44.75;96135.13;4985975;28;20199;-96
2022/11/23 06:28:26;;;;;;;6.03;4.70;;;;;;;20.04;44.39;96061.41;4964486;28;20188;-96
2022/11/23 06:30:52;;;;;;;4.67;3.90;;;;;;;19.41;43.55;95946.81;4960225;28;20193;-96
2022/11/23 06:33:19;;;;;;;6.33;4.50;;;;;;;20.37;43.12;96112.84;4975385;28;20192;-96
2022/11/23 06:35:58;;;;;;;4.40;3.77;;;;;;;19.57;43.43;95986.91;4985735;28;20202;-96
2022/11/23 06:38:25;;;;;;;6.37;4.47;;;;;;;20.59;44.04;96173.53;4986810;28;20253;-95
2022/11/23 06:40:52;;;;;;;5.10;4.20;;;;;;;20.08;44.80;96101.44;4973044;28;20208;-96
2022/11/23 06:43:18;;;;;;;4.77;3.97;;;;;;;19.00;45.26;95894.44;4977593;28;20207;-95
2022/11/23 06:45:45;;;;;;;3.87;3.50;;;;;;;19.77;45.79;96031.34;4986411;28;20519;-94
2022/11/23 06:48:12;;;;;;;6.37;3.97;;;;;;;20.31;45.69;96143.38;4969499;28;20194;-95
2022/11/23 06:50:39;;;;;;;4.33;3.60;;;;;;;19.40;46.68;95969.72;4963933;28;20190;-96
2022/11/23 06:53:06;;;;;;;4.70;3.60;;;;;;;20.26;46.88;96106.78;4956104;28;20180;-95
2022/11/23 06:55:32;;;;;;;3.70;3.40;;;;;;;19.94;46.89;96057.03;4991611;28;20227;-96
2022/11/23 06:57:59;;;;;;;4.20;3.50;;;;;;;20.63;46.50;96174.44;4961853;28;20206;-96
2022/11/23 07:00:26;;;;;;;4.53;3.47;;;;;;;19.45;47.16;95974.03;4984668;28;20219;-93
2022/11/23 07:02:53;;;;;;;4.50;3.60;;;;;;;20.67;47.26;96176.16;4980993;28;20198;-96
2022/11/23 07:05:20;;;;;;;4.47;3.53;;;;;;;20.18;47.65;96092.22;4952094;28;20233;-94
2022/11/23 07:07:46;;;;;;;5.43;3.73;;;;;;;20.59;47.45;96186.28;4963102;28;20210;-94
2022/11/23 07:10:13;;;;;;;4.00;3.30;;;;;;;20.64;47.70;96184.66;4960247;28;20208;-95
2022/11/23 07:12:40;;;;;;;5.10;3.57;;;;;;;20.18;47.66;96127.91;4971909;28;20185;-94
2022/11/23 07:15:07;;;;;;;6.70;3.80;;;;;;;19.82;45.53;96062.88;4967304;28;20204;-95
2022/11/23 07:17:38;;;;;;;12.03;4.37;;;;;;;20.20;44.73;96124.56;4978707;28;20267;-95
2022/11/23 07:20:09;;;;;;;5.93;3.90;;;;;;;20.03;45.07;96090.31;4963118;28;20190;-94
2022/11/23 07:22:36;;;;;;;6.23;3.93;;;;;;;21.05;45.74;96264.31;5019506;23;20731;-87
2022/11/23 07:25:03;;;;;;;5.73;3.60;;;;;;;20.67;46.14;96201.69;5029964;28;20208;-86
2022/11/23 07:27:30;;;;;;;5.60;4.27;;;;;;;20.53;46.01;96185.34;5011491;28;20205;-88
2022/11/23 07:29:56;;;;;;;6.07;3.97;;;;;;;21.04;46.60;96273.66;4998338;28;20205;-87
2022/11/23 07:32:23;;;;;;;4.27;3.50;;;;;;;21.05;47.23;96285.56;5012631;28;20221;-87
2022/11/23 07:34:49;;;;;;;3.70;3.30;;;;;;;20.32;46.91;96157.88;4996312;28;20217;-87
2022/11/23 07:37:16;;;;;;;5.93;3.23;;;;;;;21.04;47.34;96285.56;5012275;28;20697;-86
2022/11/23 07:39:42;;;;;;;3.80;3.27;;;;;;;19.39;47.38;96008.75;5006101;28;20335;-86
2022/11/23 07:42:25;;;;;;;3.80;3.30;;;;;;;20.08;47.52;96129.47;5019087;28;20235;-87
2022/11/23 07:45:08;;;;;;;6.47;3.40;;;;;;;21.05;47.61;96288.13;5013604;28;20198;-91
2022/11/23 07:47:35;;;;;;;4.97;3.47;;;;;;;21.06;47.54;96289.00;5017238;28;20205;-87
2022/11/23 07:50:03;;;;;;;5.10;3.67;;;;;;;20.41;47.47;96203.91;5022177;28;20198;-87
2022/11/23 07:52:29;;;;;;;3.77;3.27;;;;;;;20.33;47.64;96171.47;4990498;28;20258;-87
2022/11/23 07:54:56;;;;;;;4.70;3.30;;;;;;;17.70;47.90;95746.69;5021384;28;20212;-88
2022/11/23 07:57:23;;;;;;;4.67;3.20;;;;;;;20.32;47.92;96205.50;4990190;28;20303;-86
2022/11/23 07:59:49;;;;;;;4.10;3.53;;;;;;;21.04;48.08;96298.34;5004655;28;20297;-86
2022/11/23 08:02:16;;;;;;;4.30;3.07;;;;;;;19.88;47.93;96098.63;5029881;28;20248;-88
2022/11/23 08:04:42;;;;;;;5.37;3.23;;;;;;;20.33;48.12;96180.00;4978267;28;20467;-88
2022/11/23 08:07:09;;;;;;;4.13;3.20;;;;;;;19.34;48.03;96025.66;4998071;28;20212;-86
2022/11/23 08:09:36;;;;;;;4.37;3.30;;;;;;;20.32;48.23;96179.97;4991574;28;20313;-87
2022/11/23 08:12:02;;;;;;;4.83;3.20;;;;;;;19.82;48.30;96096.00;4997661;28;20553;-87
2022/11/23 08:14:29;;;;;;;4.47;3.17;;;;;;;19.99;48.50;96117.44;4997071;28;20986;-87
2022/11/23 08:16:56;;;;;;;4.40;3.17;;;;;;;20.61;48.26;96222.03;4993525;28;20270;-87
2022/11/23 08:19:23;;;;;;;6.20;3.30;;;;;;;20.35;48.66;96183.44;5023750;28;20299;-86
2022/11/23 08:21:49;;;;;;;4.27;2.93;;;;;;;21.07;48.57;96306.91;4998310;28;20239;-86
2022/11/23 08:24:16;;;;;;;4.03;2.97;;;;;;;19.53;48.39;96048.00;5012626;28;20667;-87
2022/11/23 08:26:42;;;;;;;3.43;3.07;;;;;;;20.02;48.50;96128.53;4996953;28;20198;-87
2022/11/23 08:29:09;;;;;;;3.43;2.77;;;;;;;19.14;48.81;95981.19;4981987;28;20589;-88
2022/11/23 08:31:35;;;;;;;4.03;3.00;;;;;;;21.09;48.97;96317.13;4995437;28;20218;-87
2022/11/23 08:34:02;;;;;;;3.17;2.87;;;;;;;19.64;48.77;96066.84;5003667;28;20298;-88
2022/11/23 08:36:29;;;;;;;5.43;3.30;;;;;;;20.81;48.71;96266.53;5007622;28;20214;-90
2022/11/23 08:38:55;;;;;;;5.20;2.70;;;;;;;20.57;48.90;96225.41;4996619;28;20210;-87
2022/11/23 08:41:22;;;;;;;4.17;3.00;;;;;;;20.93;48.83;96271.78;5012778;28;20235;-90
2022/11/23 08:43:49;;;;;;;6.47;3.10;;;;;;;20.09;48.62;96133.75;5021123;28;20688;-87
2022/11/23 08:46:16;;;;;;;3.17;2.87;;;;;;;20.54;48.78;96210.03;4983392;28;20207;-89
2022/11/23 08:48:42;;;;;;;5.37;2.97;;;;;;;15.36;48.69;95346.94;4998953;28;20198;-91
2022/11/23 08:51:09;;;;;;;3.63;2.60;;;;;;;19.79;49.33;96146.06;5011806;28;20288;-92
2022/11/23 08:53:36;;;;;;;3.20;2.90;;;;;;;13.27;48.85;94982.41;4973324;28;20221;-91
2022/11/23 08:56:03;;;;;;;3.53;2.87;;;;;;;20.61;49.19;96215.25;4997765;28;20197;-92
2022/11/23 08:58:30;;;;;;;3.60;2.93;;;;;;;17.73;49.23;95810.25;4982671;28;20268;-90
2022/11/23 09:00:56;;;;;;;3.83;2.80;;;;;;;16.97;49.06;95594.00;5004116;28;20198;-90
2022/11/23 09:03:23;;;;;;;2.93;2.50;;;;;;;18.97;49.22;95963.13;4995970;28;20233;-89
2022/11/23 09:05:53;;;;;;;6.70;2.97;;;;;;;15.22;49.18;95300.31;5012419;28;20202;-87
2022/11/23 09:08:20;;;;;;;3.67;2.67;;;;;;;18.81;49.82;95965.44;5000012;28;20225;-89
2022/11/23 09:10:46;;;;;;;3.33;2.50;;;;;;;19.38;49.08;96089.41;4976008;28;20300;-89
2022/11/23 09:13:13;;;;;;;4.27;2.70;;;;;;;18.22;48.99;95822.06;5005175;28;20333;-86
2022/11/23 09:15:39;;;;;;;4.73;2.50;;;;;;;16.72;49.33;95602.00;5014208;28;20622;-89
2022/11/23 09:18:06;;;;;;;3.83;2.80;;;;;;;19.25;49.57;95984.75;4996001;28;20232;-89
2022/11/23 09:20:32;;;;;;;5.63;3.13;;;;;;;17.14;49.67;95624.72;5010896;28;20197;-90
2022/11/23 09:22:59;;;;;;;4.57;2.93;;;;;;;18.00;49.46;95848.81;5010363;28;20281;-89
2022/11/23 09:25:26;;;;;;;5.63;3.00;;;;;;;20.14;49.51;96161.88;5015276;28;20213;-90
2022/11/23 09:27:58;;;;;;;3.73;2.57;;;;;;;20.83;49.37;96247.84;4996538;28;20711;-89
2022/11/23 09:30:25;;;;;;;3.40;2.60;;;;;;;20.16;49.56;96132.16;4986813;28;20208;-90
2022/11/23 09:32:55;;;;;;;3.73;2.60;;;;;;;20.80;49.50;96295.44;4990446;28;20236;-90
2022/11/23 09:35:22;;;;;;;2.60;2.40;;;;;;;18.36;49.35;95824.81;4980003;28;20222;-89
2022/11/23 09:37:54;;;;;;;5.07;2.50;;;;;;;19.78;50.08;96141.81;4998351;28;20210;-89
2022/11/23 09:40:21;;;;;;;2.73;2.30;;;;;;;19.26;49.89;95999.19;4980463;28;20206;-90
2022/11/23 09:43:29;;;;;;;4.63;2.67;;;;;;;21.13;49.80;96306.97;4998822;28;20232;-89
2022/11/23 09:45:56;;;;;;;2.90;2.60;;;;;;;14.42;49.64;95172.41;5024630;28;20572;-90
2022/11/23 09:48:53;;;;;;;4.30;2.30;;;;;;;21.14;49.82;96307.84;4999694;28;20287;-89
2022/11/23 09:51:21;;;;;;;3.03;2.40;;;;;;;18.48;49.65;95847.91;5030922;28;20256;-90
2022/11/23 09:53:51;;;;;;;3.23;2.40;;;;;;;21.13;49.83;96301.00;4977707;28;20718;-90
2022/11/23 09:56:20;;;;;;;3.67;2.43;;;;;;;20.42;49.99;96177.56;5018563;28;20714;-84
2022/11/23 09:58:46;;;;;;;2.93;2.60;;;;;;;15.50;49.85;95353.16;4991149;28;20227;-90
2022/11/23 10:01:14;;;;;;;3.70;2.43;;;;;;;20.91;50.16;96253.03;4996794;28;20229;-86
2022/11/23 10:03:41;;;;;;;2.97;2.67;;;;;;;19.05;50.12;95963.25;5006601;28;20208;-87
2022/11/23 10:06:24;;;;;;;4.80;2.83;;;;;;;20.42;50.23;96174.13;4997979;28;20564;-88
2022/11/23 10:08:53;;;;;;;2.93;2.60;;;;;;;21.13;50.22;96294.19;4988592;28;20741;-86
2022/11/23 10:11:39;;;;;;;3.53;2.30;;;;;;;21.14;50.03;96287.41;5023902;28;20225;-87
2022/11/23 10:14:22;;;;;;;2.67;2.43;;;;;;;21.14;50.29;96284.84;5035441;28;20202;-88
2022/11/23 10:17:14;;;;;;;3.03;2.47;;;;;;;21.15;49.97;96282.31;4994303;28;20202;-87
2022/11/23 10:19:51;;;;;;;2.30;2.10;;;;;;;19.93;49.97;96071.47;5034202;28;20198;-87
2022/11/23 10:22:19;;;;;;;4.10;2.70;;;;;;;21.14;49.93;96275.47;5013403;28;20316;-85
2022/11/23 10:24:49;;;;;;;4.83;2.77;;;;;;;20.60;50.09;96185.44;4997811;28;20194;-86
2022/11/23 10:27:17;;;;;;;2.70;2.37;;;;;;;20.65;50.19;96188.03;4997659;28;20197;-87
2022/11/23 10:29:44;;;;;;;3.63;2.57;;;;;;;21.02;50.25;96246.41;5006358;28;20228;-85
2022/11/23 10:32:44;;;;;;;2.90;2.43;;;;;;;21.15;50.03;96268.66;4983713;28;20264;-89
2022/11/23 10:35:15;;;;;;;2.80;2.43;;;;;;;18.83;50.14;95873.00;5003767;28;20212;-88
2022/11/23 10:37:41;;;;;;;5.30;2.50;;;;;;;18.63;50.41;95833.72;5007601;28;20232;-89
2022/11/23 10:40:20;;;;;;;3.10;2.33;;;;;;;19.65;50.20;96008.25;5010995;28;20207;-87
2022/11/23 10:42:50;;;;;;;7.07;2.70;;;;;;;20.06;50.23;96077.59;5009600;28;20227;-88
2022/11/23 10:45:22;;;;;;;2.90;2.30;;;;;;;20.62;50.08;96171.00;5009615;28;20288;-89
2022/11/23 10:47:50;;;;;;;3.77;2.60;;;;;;;19.27;50.26;95938.13;4989290;28;20195;-88
2022/11/23 10:50:24;;;;;;;3.13;2.60;;;;;;;21.15;50.54;96264.44;5004791;28;20212;-85
2022/11/23 10:53:17;;;;;;;3.10;2.60;;;;;;;21.16;50.46;96258.47;5004805;28;20800;-87
2022/11/23 10:55:53;;;;;;;3.23;2.50;;;;;;;21.16;50.22;96252.50;5016951;28;20683;-88
2022/11/23 10:58:33;;;;;;;2.90;2.37;;;;;;;21.16;50.53;96255.03;5013273;28;20222;-85
2022/11/23 11:01:02;;;;;;;3.30;2.60;;;;;;;19.94;50.34;96046.84;5025595;28;20206;-86
2022/11/23 11:03:30;;;;;;;3.27;2.40;;;;;;;21.15;50.47;96254.22;5010558;28;20220;-87
2022/11/23 11:05:57;;;;;;;2.37;2.17;;;;;;;18.38;50.30;95780.78;5023916;28;20230;-88
2022/11/23 11:08:55;;;;;;;2.73;2.40;;;;;;;19.67;50.33;95998.94;5023445;28;20279;-89
2022/11/23 11:11:26;;;;;;;4.40;2.57;;;;;;;20.80;50.26;96199.28;4984931;28;20221;-88
2022/11/23 11:14:22;;;;;;;3.13;2.80;;;;;;;21.16;50.35;96248.25;5004701;28;20583;-91
2022/11/23 11:16:56;;;;;;;6.23;2.83;;;;;;;15.84;50.09;95388.41;5010506;28;20337;-87
2022/11/23 11:19:33;;;;;;;3.50;2.57;;;;;;;13.97;50.33;95051.09;5001502;28;20311;-89
2022/11/23 11:22:22;;;;;;;2.77;2.30;;;;;;;21.16;50.52;96244.81;5021435;28;20268;-89
2022/11/23 11:24:49;;;;;;;2.60;2.40;;;;;;;19.38;50.39;95940.81;4990587;28;20298;-92
2022/11/23 11:27:19;;;;;;;4.50;2.50;;;;;;;17.66;50.19;95689.06;5019734;28;20209;-89
2022/11/23 11:29:47;;;;;;;2.43;2.20;;;;;;;19.86;50.57;96092.66;5016141;28;20206;-89
2022/11/23 11:32:20;;;;;;;3.10;2.50;;;;;;;18.30;50.47;95751.84;5017985;28;20244;-88
2022/11/23 11:34:48;;;;;;;3.50;2.20;;;;;;;21.15;50.71;96240.56;4997331;28;20202;-90
2022/11/23 11:37:35;;;;;;;5.20;2.40;;;;;;;17.51;50.57;95655.81;5010898;28;20189;-87
2022/11/23 11:40:50;;;;;;;2.53;2.33;;;;;;;21.15;50.53;96222.69;5022915;28;20264;-90
2022/11/23 11:43:24;;;;;;;4.03;2.47;;;;;;;19.36;50.56;95912.75;4998775;28;20218;-89
2022/11/23 11:46:12;;;;;;;2.70;2.13;;;;;;;21.16;50.72;96217.59;4994242;28;20253;-88
2022/11/23 11:48:56;;;;;;;3.63;2.50;;;;;;;21.15;50.79;96218.44;5016589;28;20206;-88
2022/11/23 11:51:33;;;;;;;7.87;2.53;;;;;;;21.16;50.46;96240.59;5014757;28;20230;-87
2022/11/23 11:54:24;;;;;;;2.77;2.00;;;;;;;21.17;51.27;96213.34;5005922;28;20254;-88
2022/11/23 11:56:53;;;;;;;5.53;2.57;;;;;;;16.88;51.35;95481.38;5009001;28;20658;-87
2022/11/23 11:59:41;;;;;;;5.60;2.60;;;;;;;20.27;51.26;96060.03;5009732;28;20226;-89
2022/11/23 12:02:27;;;;;;;6.50;2.53;;;;;;;21.20;51.26;96210.81;4984373;28;20221;-88
2022/11/23 12:05:21;;;;;;;4.37;2.50;;;;;;;21.19;51.19;96248.28;5000079;28;20196;-87
2022/11/23 12:08:01;;;;;;;11.43;2.60;;;;;;;21.21;51.12;96204.88;4987520;28;20213;-90
2022/11/23 12:10:41;;;;;;;4.40;2.40;;;;;;;19.69;51.02;95940.34;4999514;28;20205;-87
2022/11/23 12:13:31;;;;;;;4.40;2.43;;;;;;;20.60;50.99;96251.78;5001452;28;20233;-90
2022/11/23 12:16:20;;;;;;;3.53;2.57;;;;;;;15.27;50.72;95217.75;5015169;28;20204;-87
2022/11/23 12:18:53;;;;;;;6.10;2.90;;;;;;;21.20;49.97;96196.31;4996448;28;20237;-87
2022/11/23 12:21:58;;;;;;;8.47;3.23;;;;;;;21.19;47.02;96197.19;5036312;28;20229;-86
2022/11/23 12:24:43;;;;;;;5.20;3.00;;;;;;;21.17;46.24;96193.75;5025987;28;20213;-88
2022/11/23 12:27:17;;;;;;;5.07;3.00;;;;;;;21.17;46.33;96193.75;5016329;28;20201;-88
2022/11/23 12:29:44;;;;;;;7.67;2.80;;;;;;;21.16;46.94;96197.16;5011477;28;20197;-86
2022/11/23 12:32:10;;;;;;;5.97;2.57;;;;;;;21.16;47.08;96193.72;5016240;28;20237;-91
2022/11/23 12:35:10;;;;;;;6.93;2.90;;;;;;;20.52;47.57;96089.22;5018912;28;20265;-87
2022/11/23 12:37:37;;;;;;;4.47;2.77;;;;;;;21.15;47.94;96184.38;4991596;28;20248;-91
2022/11/23 12:40:38;;;;;;;6.03;2.83;;;;;;;19.29;48.22;95882.97;5035153;28;20281;-89
2022/11/23 12:43:13;;;;;;;3.83;2.70;;;;;;;19.82;47.54;96019.53;4976081;28;20259;-88
2022/11/23 12:45:53;;;;;;;4.20;2.80;;;;;;;21.13;48.24;96191.16;5000900;28;20561;-86
2022/11/23 12:48:42;;;;;;;3.30;2.37;;;;;;;21.12;48.39;96254.19;5014392;28;20220;-86
2022/11/23 12:51:43;;;;;;;4.40;2.60;;;;;;;21.13;48.80;96196.25;5011057;28;20358;-90
2022/11/23 12:54:36;;;;;;;3.73;2.37;;;;;;;20.75;48.85;96129.44;5013243;28;20206;-90
2022/11/23 12:57:14;;;;;;;4.30;2.37;;;;;;;18.78;48.83;95833.91;5015337;28;20266;-88
2022/11/23 12:59:52;;;;;;;3.50;2.30;;;;;;;21.12;49.46;96226.06;4999144;28;20233;-92
2022/11/23 13:02:28;;;;;;;4.87;2.53;;;;;;;21.12;49.09;96192.88;5000019;28;20307;-86
2022/11/23 13:05:16;;;;;;;3.33;2.30;;;;;;;21.13;49.26;96186.03;5021266;28;20209;-87
2022/11/23 13:08:14;;;;;;;4.43;2.67;;;;;;;21.12;48.54;96186.88;5037295;28;20272;-88
2022/11/23 13:10:59;;;;;;;3.33;2.40;;;;;;;21.11;48.62;96180.91;4983180;28;20199;-86
2022/11/23 13:13:32;;;;;;;5.73;2.03;;;;;;;21.11;48.72;96180.91;5023873;28;20233;-86
2022/11/23 13:16:23;;;;;;;3.27;2.30;;;;;;;21.12;48.87;96180.09;5027539;28;20233;-88
2022/11/23 13:19:12;;;;;;;4.17;2.70;;;;;;;21.11;48.90;96186.03;5027747;28;20245;-89
2022/11/23 13:24:27;;;;;;;3.47;2.33;;;;;;;17.15;48.96;95525.75;5009094;28;20225;-93
2022/11/23 13:27:12;;;;;;;2.87;2.20;;;;;;;21.11;49.23;96186.03;4983899;28;20240;-91
2022/11/23 13:29:50;;;;;;;5.50;1.90;;;;;;;21.11;49.32;96187.75;5010346;28;20202;-91
2022/11/23 13:32:39;;;;;;;3.40;2.40;;;;;;;20.46;49.22;96069.56;4984412;28;20317;-90
2022/11/23 13:35:15;;;;;;;3.73;2.40;;;;;;;21.10;49.37;96186.88;4958310;28;20218;-90
2022/11/23 13:37:56;;;;;;;2.90;2.10;;;;;;;21.12;49.53;96184.34;4989519;28;20204;-91
2022/11/23 13:40:27;;;;;;;3.43;2.27;;;;;;;21.12;49.57;96187.75;4994450;28;20209;-90
2022/11/23 13:42:56;;;;;;;3.97;2.67;;;;;;;20.32;48.17;96039.66;4966604;28;20757;-90
2022/11/23 13:45:28;;;;;;;6.10;2.47;;;;;;;20.43;47.24;96084.00;4946188;28;20704;-90
2022/11/23 13:48:10;;;;;;;6.57;2.10;;;;;;;21.11;47.15;96183.47;4948588;28;20207;-90
2022/11/23 13:50:58;;;;;;;2.83;2.30;;;;;;;20.54;48.06;96083.28;4991673;28;20210;-91
2022/11/23 13:54:03;;;;;;;2.63;2.00;;;;;;;21.09;47.78;96180.06;4942823;28;20237;-90
2022/11/23 13:56:35;;;;;;;3.87;2.30;;;;;;;20.62;48.34;96107.19;4949298;28;20202;-91
2022/11/23 13:59:24;;;;;;;6.30;2.20;;;;;;;21.10;48.30;96176.66;4961925;28;20223;-91
2022/11/23 14:02:05;;;;;;;4.67;2.37;;;;;;;21.10;48.36;96174.09;4966607;28;20210;-91
2022/11/23 14:04:32;;;;;;;3.50;2.23;;;;;;;21.10;48.58;96173.22;4976004;28;20218;-90
2022/11/23 14:07:08;;;;;;;2.90;1.97;;;;;;;21.11;48.68;96169.84;5001867;28;20206;-91
2022/11/23 14:09:42;;;;;;;5.53;2.27;;;;;;;20.66;48.75;96100.44;4992564;28;20579;-91
2022/11/23 14:12:40;;;;;;;3.47;1.87;;;;;;;21.11;48.62;96165.59;4948445;28;20318;-91
2022/11/23 14:15:07;;;;;;;2.47;1.90;;;;;;;21.11;48.89;96164.75;4966408;28;20215;-90
2022/11/23 14:17:36;;;;;;;2.77;2.00;;;;;;;21.11;48.88;96164.75;4978099;28;20206;-92
2022/11/23 14:20:27;;;;;;;5.33;2.10;;;;;;;20.59;49.24;96073.97;4979640;28;20302;-91
2022/11/23 14:23:31;;;;;;;3.33;2.10;;;;;;;21.12;49.14;96158.78;4961208;28;20284;-90
2022/11/23 14:26:19;;;;;;;4.50;2.30;;;;;;;21.12;49.27;96161.34;5003660;28;20241;-91
2022/11/23 14:29:17;;;;;;;4.33;2.00;;;;;;;21.13;49.03;96157.94;4995335;28;20254;-91
2022/11/23 14:32:13;;;;;;;3.43;1.80;;;;;;;19.68;49.19;95923.34;4977305;28;20317;-89
2022/11/23 14:34:47;;;;;;;3.27;2.03;;;;;;;21.14;49.20;96154.56;4972268;28;20202;-91
2022/11/23 14:37:22;;;;;;;2.70;1.87;;;;;;;21.13;49.53;96156.25;4992216;28;20194;-91
2022/11/23 14:39:54;;;;;;;2.70;1.70;;;;;;;20.78;49.42;96105.66;5000312;28;20272;-90